KECG

Details ICAO KECG (ECG)
Name Elizabeth City Regional Airport
Region United States
Timezone America/New_York (UTC-4.0)
Plans Departing 126
Arriving 105
Stats Elevation 10 ft / 3 m (AMSL)
Location 36.260900° -76.172000°
Runways 1
Magnetic Variation 10.930° W
Sunrise 2024-06-14 09:48:01 UTC / 2024-06-14 05:48:01 Local
Sunset 2024-06-15 00:24:47 UTC / 2024-06-14 20:24:47 Local
Advertisement - Login to hide

Runways

ID Width Length Bearing (true/mag) Surface Threshold Overrun Markings Lighting
10 150 ft / 46 m 7,204 ft / 2,196 m 92.41° / 103.34° CONCRETE 0 ft / 0 m 0 ft / 0 m APP CENTERLINE EDGE THRESHOLD
28 150 ft / 46 m 7,204 ft / 2,196 m 272.43° / 283.36° CONCRETE 0 ft / 0 m 0 ft / 0 m APP CENTERLINE EDGE THRESHOLD TDZ REIL-OMNI

Map

Weather


0- 5 10 15 20 25 30 35+ Temperature / °C

Clouds and Precipitation
Forecast for 2024-04-15 18:00 UTC. Updated 2 months ago

Ground ~20,000 ft ~40,000 ft Winds

METAR

KECG 141454Z VRB04KT 10SM CLR 28/17 A2996 RMK AO2 SLP144 T02780172 56004

TAF

TAF TAF KECG 141120Z 1412/1512 VRB04KT P6SM SKC FM141500 09007KT P6SM SKC FM150000 13004KT P6SM FEW250 FM150600 VRB04KT P6SM SCT250

Frequencies

Unicom 122.95 MHz Unicom
Tower 120.50 MHz Elizabeth City Tower
Unicom 120.50 MHz CTAF
Ground 121.90 MHz Elizabeth City Ground
Recorded 124.37 MHz ASOS
Approach 119.55 MHz Norfolk Approach
Warning: Do not use this data for real-world aviation or navigation. No guarantee of current accuracy is given.